createdAt,value
2023-02-27T00:01:50.297Z,97889.00
2023-02-27T00:04:16.759Z,97881.38
2023-02-27T00:06:43.135Z,97885.69
2023-02-27T00:09:09.569Z,97890.75
2023-02-27T00:11:38.398Z,97880.22
2023-02-27T00:14:04.827Z,97873.75
2023-02-27T00:16:31.210Z,97869.69
2023-02-27T00:19:01.039Z,97863.41
2023-02-27T00:21:27.969Z,97879.47
2023-02-27T00:23:55.332Z,97880.81
2023-02-27T00:26:21.725Z,97880.03
2023-02-27T00:28:48.090Z,97872.41
2023-02-27T00:31:14.625Z,97892.16
2023-02-27T00:33:40.967Z,97893.13
2023-02-27T00:36:07.353Z,97890.59
2023-02-27T00:38:33.709Z,97865.78
2023-02-27T00:41:00.137Z,97877.50
2023-02-27T00:43:26.721Z,97876.53
2023-02-27T00:45:53.126Z,97877.69
2023-02-27T00:48:20.012Z,97885.13
2023-02-27T00:50:46.411Z,97893.72
2023-02-27T00:53:12.919Z,97893.72
2023-02-27T00:55:39.256Z,97882.19
2023-02-27T00:58:05.622Z,97900.56
2023-02-27T01:00:32.200Z,97888.25
2023-02-27T01:02:58.602Z,97888.66
2023-02-27T01:05:24.970Z,97882.00
2023-02-27T01:07:51.375Z,97892.38
2023-02-27T01:10:17.905Z,97886.47
2023-02-27T01:12:44.331Z,97875.34
2023-02-27T01:15:12.256Z,97885.31
2023-02-27T01:17:39.175Z,97888.84
2023-02-27T01:20:07.413Z,97887.47
2023-02-27T01:22:34.175Z,97882.97
2023-02-27T01:25:00.896Z,97884.34
2023-02-27T01:27:27.437Z,97869.69
2023-02-27T01:29:53.839Z,97874.78
2023-02-27T01:32:20.312Z,97883.19
2023-02-27T01:34:46.909Z,97879.84
2023-02-27T01:37:13.419Z,97894.50
2023-02-27T01:39:39.827Z,97873.78
2023-02-27T01:42:18.352Z,97880.63
2023-02-27T01:45:09.553Z,97883.56
2023-02-27T01:47:39.128Z,97881.59
2023-02-27T01:50:06.305Z,97884.31
2023-02-27T01:52:35.506Z,97895.28
2023-02-27T01:55:03.442Z,97874.56
2023-02-27T01:57:29.912Z,97867.50
2023-02-27T01:59:56.312Z,97881.59
2023-02-27T02:02:31.555Z,97879.25
2023-02-27T02:04:58.947Z,97873.75
2023-02-27T02:07:25.540Z,97873.94
2023-02-27T02:09:54.825Z,97876.28
2023-02-27T02:12:25.634Z,97866.72
2023-02-27T02:14:52.079Z,97865.53
2023-02-27T02:17:29.786Z,97871.03
2023-02-27T02:20:23.242Z,97872.78
2023-02-27T02:23:27.076Z,97878.25
2023-02-27T02:26:14.089Z,97881.97
2023-02-27T02:28:52.237Z,97881.38
2023-02-27T02:31:18.624Z,97877.47
2023-02-27T02:33:57.047Z,97885.69
2023-02-27T02:36:26.406Z,97884.09
2023-02-27T02:39:20.391Z,97867.13
2023-02-27T02:42:11.467Z,97884.13
2023-02-27T02:44:40.882Z,97893.09
2023-02-27T02:47:24.784Z,97881.16
2023-02-27T02:50:01.198Z,97895.81
2023-02-27T02:52:45.968Z,97883.53
2023-02-27T02:55:18.532Z,97884.91
2023-02-27T02:58:17.469Z,97884.91
2023-02-27T03:00:54.296Z,97878.81
2023-02-27T03:03:34.986Z,97884.28
2023-02-27T03:06:06.702Z,97886.44
2023-02-27T03:08:40.631Z,97874.69
2023-02-27T03:11:07.105Z,97880.72
2023-02-27T03:13:38.986Z,97872.13
2023-02-27T03:16:19.740Z,97870.75
2023-02-27T03:19:24.719Z,97874.28
2023-02-27T03:22:02.658Z,97886.19
2023-02-27T03:24:42.300Z,97886.34
2023-02-27T03:27:09.587Z,97875.78
2023-02-27T03:29:52.228Z,97885.19
2023-02-27T03:32:49.393Z,97894.59
2023-02-27T03:35:16.126Z,97886.19
2023-02-27T03:37:49.501Z,97889.50
2023-02-27T03:40:52.369Z,97875.63
2023-02-27T03:43:32.249Z,97875.19
2023-02-27T03:46:11.411Z,97882.44
2023-02-27T03:48:38.550Z,97890.03
2023-02-27T03:51:05.085Z,97891.59
2023-02-27T03:53:41.507Z,97898.63
2023-02-27T03:56:09.955Z,97903.28
2023-02-27T03:58:36.730Z,97902.91
2023-02-27T04:01:03.290Z,97897.88
2023-02-27T04:03:32.829Z,97905.66
2023-02-27T04:06:19.251Z,97906.97
2023-02-27T04:09:10.406Z,97898.19
2023-02-27T04:11:55.058Z,97917.13
2023-02-27T04:14:35.442Z,97900.47
2023-02-27T04:17:22.855Z,97918.28
2023-02-27T04:20:14.549Z,97920.41
2023-02-27T04:22:53.630Z,97908.06
2023-02-27T04:25:26.587Z,97922.13
2023-02-27T04:27:57.667Z,97918.16
2023-02-27T04:30:39.369Z,97921.13
2023-02-27T04:33:12.021Z,97918.22
2023-02-27T04:35:47.460Z,97906.06
2023-02-27T04:38:30.490Z,97913.28
2023-02-27T04:41:07.097Z,97923.06
2023-02-27T04:43:35.742Z,97921.34
2023-02-27T04:46:05.170Z,97928.94
2023-02-27T04:48:46.845Z,97919.81
2023-02-27T04:51:20.610Z,97924.47
2023-02-27T04:53:58.651Z,97925.03
2023-02-27T04:56:34.618Z,97921.28
2023-02-27T04:59:08.898Z,97933.00
2023-02-27T05:01:44.020Z,97916.56
2023-02-27T05:04:15.867Z,97925.56
2023-02-27T05:06:45.023Z,97922.59
2023-02-27T05:09:30.703Z,97926.53
2023-02-27T05:12:03.986Z,97936.13
2023-02-27T05:14:36.115Z,97939.03
2023-02-27T05:17:17.999Z,97940.22
2023-02-27T05:19:45.798Z,97933.00
2023-02-27T05:22:24.057Z,97944.97
2023-02-27T05:25:09.043Z,97948.56
2023-02-27T05:27:47.017Z,97948.16
2023-02-27T05:30:28.621Z,97951.31
2023-02-27T05:33:01.939Z,97954.97
2023-02-27T05:35:33.733Z,97963.81
2023-02-27T05:38:20.324Z,97963.22
2023-02-27T05:41:09.429Z,97962.41
2023-02-27T05:43:41.903Z,97955.75
2023-02-27T05:46:21.158Z,97957.97
2023-02-27T05:48:56.436Z,97965.44
2023-02-27T05:51:28.080Z,97971.88
2023-02-27T05:54:01.348Z,97958.41
2023-02-27T05:56:30.567Z,97967.06
2023-02-27T05:59:03.143Z,97975.66
2023-02-27T06:01:29.585Z,97973.13
2023-02-27T06:03:56.145Z,97971.38
2023-02-27T06:06:22.811Z,97964.91
2023-02-27T06:08:49.206Z,97972.56
2023-02-27T06:11:15.623Z,97959.84
2023-02-27T06:13:42.310Z,97971.19
2023-02-27T06:16:11.436Z,97963.91
2023-02-27T06:18:37.795Z,97978.03
2023-02-27T06:21:04.990Z,97966.69
2023-02-27T06:23:31.355Z,97975.31
2023-02-27T06:25:58.158Z,97979.59
2023-02-27T06:28:24.706Z,97991.34
2023-02-27T06:30:55.491Z,97984.31
2023-02-27T06:33:21.869Z,97989.97
2023-02-27T06:35:49.441Z,97989.59
2023-02-27T06:38:16.426Z,97978.47
2023-02-27T06:40:42.868Z,97985.69
2023-02-27T06:43:09.461Z,97981.03
2023-02-27T06:45:36.151Z,97991.75
2023-02-27T06:48:02.604Z,97994.47
2023-02-27T06:50:29.007Z,97986.84
2023-02-27T06:52:55.382Z,97985.50
2023-02-27T06:55:22.666Z,97992.75
2023-02-27T06:57:49.297Z,97991.63
2023-02-27T07:00:16.809Z,97983.59
2023-02-27T07:02:43.302Z,97996.72
2023-02-27T07:05:13.399Z,97988.91
2023-02-27T07:07:40.225Z,97981.88
2023-02-27T07:10:11.683Z,97992.25
2023-02-27T07:12:38.814Z,97999.31
2023-02-27T07:15:06.139Z,98005.19
2023-02-27T07:17:32.545Z,98002.47
2023-02-27T07:19:58.883Z,97994.44
2023-02-27T07:22:25.238Z,98009.31
2023-02-27T07:24:51.603Z,98001.88
2023-02-27T07:27:17.990Z,98010.28
2023-02-27T07:29:44.369Z,97998.53
2023-02-27T07:32:11.267Z,97995.63
2023-02-27T07:34:37.666Z,97994.63
2023-02-27T07:37:04.045Z,98011.03
2023-02-27T07:39:30.397Z,98013.59
2023-02-27T07:41:56.831Z,98008.50
2023-02-27T07:44:23.194Z,98006.34
2023-02-27T07:46:49.665Z,98003.19
2023-02-27T07:49:16.040Z,98012.03
2023-02-27T07:51:42.414Z,98010.59
2023-02-27T07:54:08.767Z,98015.47
2023-02-27T07:56:35.230Z,98015.84
2023-02-27T07:59:01.665Z,98018.38
2023-02-27T08:01:28.155Z,98011.06
2023-02-27T08:03:56.372Z,98021.59
2023-02-27T08:06:23.592Z,98030.41
2023-02-27T08:08:50.800Z,98025.69
2023-02-27T08:11:18.423Z,98033.06
2023-02-27T08:14:02.748Z,98016.59
2023-02-27T08:16:31.011Z,98020.44
2023-02-27T08:18:58.249Z,98038.44
2023-02-27T08:21:25.320Z,98044.47
2023-02-27T08:23:51.831Z,98039.94
2023-02-27T08:26:18.488Z,98023.00
2023-02-27T08:28:45.751Z,98032.97
2023-02-27T08:31:12.396Z,98040.03
2023-02-27T08:33:39.213Z,98035.63
2023-02-27T08:36:06.388Z,98034.59
2023-02-27T08:38:32.878Z,98040.97
2023-02-27T08:40:59.433Z,98022.75
2023-02-27T08:43:25.816Z,98033.06
2023-02-27T08:45:52.668Z,98040.38
2023-02-27T08:48:19.232Z,98038.59
2023-02-27T08:50:46.461Z,98025.06
2023-02-27T08:53:13.521Z,98035.91
2023-02-27T08:55:39.896Z,98031.75
2023-02-27T08:58:06.258Z,98032.31
2023-02-27T09:00:32.901Z,98036.34
2023-02-27T09:03:00.513Z,98024.28
2023-02-27T09:05:27.681Z,98034.69
2023-02-27T09:07:54.111Z,98042.72
2023-02-27T09:10:20.468Z,98019.97
2023-02-27T09:12:49.148Z,98031.84
2023-02-27T09:15:15.917Z,98029.84
2023-02-27T09:17:42.387Z,98034.69
2023-02-27T09:20:10.654Z,98023.25
2023-02-27T09:22:37.251Z,98017.97
2023-02-27T09:25:03.918Z,98020.38
2023-02-27T09:27:30.338Z,98039.31
2023-02-27T09:29:56.741Z,98037.47
2023-02-27T09:32:24.069Z,98039.50
2023-02-27T09:34:50.601Z,98026.13
2023-02-27T09:37:19.117Z,98037.69
2023-02-27T09:39:46.480Z,98041.66
2023-02-27T09:42:25.483Z,98032.22
2023-02-27T09:45:05.430Z,98047.97
2023-02-27T09:47:43.803Z,98049.03
2023-02-27T09:50:33.715Z,98032.50
2023-02-27T09:53:00.390Z,98050.31
2023-02-27T09:55:30.484Z,98053.16
2023-02-27T09:58:08.008Z,98054.50
2023-02-27T10:00:56.749Z,98053.88
2023-02-27T10:03:52.446Z,98060.06
2023-02-27T10:06:38.870Z,98076.47
2023-02-27T10:09:24.319Z,98076.69
2023-02-27T10:12:23.884Z,98081.91
2023-02-27T10:15:12.797Z,98070.50
2023-02-27T10:17:44.568Z,98088.47
2023-02-27T10:20:20.257Z,98080.31
2023-02-27T10:22:49.436Z,98094.44
2023-02-27T10:25:30.841Z,98089.06
2023-02-27T10:28:08.950Z,98100.50
2023-02-27T10:30:35.661Z,98098.81
2023-02-27T10:33:12.677Z,98094.97
2023-02-27T10:35:42.178Z,98093.56
2023-02-27T10:38:29.302Z,98101.44
2023-02-27T10:40:58.000Z,98104.84
2023-02-27T10:43:24.541Z,98094.44
2023-02-27T10:45:51.034Z,98103.31
2023-02-27T10:48:19.509Z,98098.03
2023-02-27T10:50:52.061Z,98098.56
2023-02-27T10:53:24.497Z,98096.84
2023-02-27T10:56:02.189Z,98082.28
2023-02-27T10:58:35.051Z,98094.00
2023-02-27T11:01:04.977Z,98085.66
2023-02-27T11:03:39.241Z,98071.31
2023-02-27T11:06:12.889Z,98077.72
2023-02-27T11:08:39.673Z,98073.81
2023-02-27T11:11:11.772Z,98057.06
2023-02-27T11:13:41.190Z,98070.41
2023-02-27T11:16:15.368Z,98056.78
2023-02-27T11:18:44.185Z,98071.09
2023-02-27T11:21:16.502Z,98074.94
2023-02-27T11:23:58.096Z,98051.66
2023-02-27T11:26:33.151Z,98060.38
2023-02-27T11:29:14.762Z,98033.91
2023-02-27T11:31:47.840Z,98041.03
2023-02-27T11:34:30.281Z,98033.91
2023-02-27T11:37:01.302Z,98038.66
2023-02-27T11:39:36.353Z,98044.13
2023-02-27T11:42:29.840Z,98041.97
2023-02-27T11:46:14.684Z,98044.41
2023-02-27T11:48:50.454Z,98033.81
2023-02-27T11:51:54.378Z,98038.78
2023-02-27T11:54:32.313Z,98040.78
2023-02-27T11:57:04.610Z,98039.66
2023-02-27T11:59:38.574Z,98034.34
2023-02-27T12:02:20.462Z,98035.22
2023-02-27T12:05:06.364Z,98039.25
2023-02-27T12:07:53.985Z,98032.66
2023-02-27T12:10:24.841Z,98022.09
2023-02-27T12:12:57.160Z,98022.31
2023-02-27T12:15:42.880Z,98017.84
2023-02-27T12:18:21.221Z,98017.97
2023-02-27T12:21:15.455Z,98018.06
2023-02-27T12:23:47.374Z,98001.69
2023-02-27T12:26:21.916Z,98011.28
2023-02-27T12:29:25.649Z,97999.91
2023-02-27T12:32:17.648Z,98016.28
2023-02-27T12:34:58.855Z,97997.13
2023-02-27T12:37:28.302Z,97999.59
2023-02-27T12:39:58.109Z,97983.31
2023-02-27T12:43:17.450Z,97980.56
2023-02-27T12:46:06.368Z,98001.03
2023-02-27T12:48:43.189Z,97990.44
2023-02-27T12:51:28.277Z,97983.19
2023-02-27T12:54:26.886Z,97973.88
2023-02-27T12:57:22.347Z,97987.13
2023-02-27T13:00:22.897Z,97984.09
2023-02-27T13:03:15.550Z,97977.19
2023-02-27T13:05:43.097Z,97985.00
2023-02-27T13:08:16.798Z,97989.22
2023-02-27T13:11:13.843Z,97971.28
2023-02-27T13:13:47.574Z,97989.44
2023-02-27T13:16:16.987Z,97978.53
2023-02-27T13:18:49.863Z,97974.88
2023-02-27T13:21:28.795Z,97973.28
2023-02-27T13:24:26.617Z,97984.97
2023-02-27T13:27:28.905Z,97986.53
2023-02-27T13:30:03.587Z,97975.75
2023-02-27T13:32:44.480Z,97983.88
2023-02-27T13:35:33.232Z,97989.31
2023-02-27T13:38:02.402Z,97985.41
2023-02-27T13:40:28.873Z,97999.91
2023-02-27T13:43:01.925Z,97990.31
2023-02-27T13:45:53.873Z,97993.75
2023-02-27T13:48:43.676Z,98001.72
2023-02-27T13:51:48.906Z,98001.50
2023-02-27T13:54:15.316Z,97991.28
2023-02-27T13:56:49.091Z,97997.66
2023-02-27T13:59:32.070Z,98005.34
2023-02-27T14:02:24.930Z,98002.53
2023-02-27T14:04:55.128Z,97978.91
2023-02-27T14:07:25.327Z,97988.66
2023-02-27T14:10:00.307Z,97989.16
2023-02-27T14:12:45.446Z,97992.47
2023-02-27T14:15:18.238Z,97994.91
2023-02-27T14:17:46.949Z,97989.13
2023-02-27T14:20:16.241Z,97990.28
2023-02-27T14:23:04.415Z,98001.28
2023-02-27T14:25:35.447Z,97995.63
2023-02-27T14:28:02.792Z,97993.44
2023-02-27T14:30:32.074Z,97992.84
2023-02-27T14:33:07.779Z,97996.66
2023-02-27T14:35:35.868Z,97990.34
2023-02-27T14:38:09.763Z,97997.53
2023-02-27T14:40:43.036Z,98004.34
2023-02-27T14:43:29.059Z,98001.47
2023-02-27T14:45:55.986Z,98012.34
2023-02-27T14:48:27.801Z,98014.59
2023-02-27T14:50:54.711Z,97997.09
2023-02-27T14:53:26.614Z,97991.00
2023-02-27T14:55:58.547Z,98003.50
2023-02-27T14:58:25.925Z,97993.09
2023-02-27T15:01:10.853Z,98001.47
2023-02-27T15:03:46.724Z,97998.09
2023-02-27T15:06:17.523Z,97990.06
2023-02-27T15:08:48.880Z,97987.47
2023-02-27T15:11:18.116Z,97987.81
2023-02-27T15:13:45.706Z,97994.28
2023-02-27T15:16:24.328Z,98001.19
2023-02-27T15:18:53.498Z,97987.13
2023-02-27T15:21:23.298Z,98003.50
2023-02-27T15:23:55.854Z,97999.94
2023-02-27T15:26:22.279Z,98006.75
2023-02-27T15:28:50.117Z,98001.97
2023-02-27T15:31:22.772Z,97989.50
2023-02-27T15:33:50.533Z,97989.72
2023-02-27T15:36:22.017Z,97979.59
2023-02-27T15:39:08.018Z,98007.09
2023-02-27T15:41:34.839Z,97999.31
2023-02-27T15:44:03.232Z,97994.31
2023-02-27T15:46:30.618Z,97994.19
2023-02-27T15:48:57.575Z,97985.50
2023-02-27T15:51:26.677Z,97995.88
2023-02-27T15:53:55.549Z,97983.31
2023-02-27T15:56:28.433Z,98007.00
2023-02-27T15:59:00.134Z,98012.59
2023-02-27T16:01:30.736Z,98001.69
2023-02-27T16:03:59.937Z,97997.91
2023-02-27T16:06:30.506Z,98011.94
2023-02-27T16:09:15.739Z,98019.63
2023-02-27T16:11:42.176Z,98012.59
2023-02-27T16:14:37.373Z,98028.22
2023-02-27T16:17:04.208Z,98021.75
2023-02-27T16:19:32.460Z,98035.69
2023-02-27T16:22:06.696Z,98049.16
2023-02-27T16:24:33.641Z,98038.44
2023-02-27T16:27:01.713Z,98035.44
2023-02-27T16:29:35.678Z,98046.47
2023-02-27T16:32:03.615Z,98051.59
2023-02-27T16:34:45.577Z,98051.38
2023-02-27T16:37:25.583Z,98051.50
2023-02-27T16:39:52.262Z,98053.81
2023-02-27T16:42:18.811Z,98057.16
2023-02-27T16:44:45.288Z,98052.38
2023-02-27T16:47:11.779Z,98064.63
2023-02-27T16:49:39.027Z,98057.38
2023-02-27T16:52:07.249Z,98065.06
2023-02-27T16:54:35.010Z,98074.75
2023-02-27T16:57:01.375Z,98064.69
2023-02-27T16:59:33.270Z,98076.53
2023-02-27T17:02:02.652Z,98084.28
2023-02-27T17:04:29.536Z,98078.97
2023-02-27T17:06:57.404Z,98071.13
2023-02-27T17:09:24.361Z,98071.69
2023-02-27T17:11:50.713Z,98082.94
2023-02-27T17:14:17.181Z,98084.16
2023-02-27T17:16:43.582Z,98080.03
2023-02-27T17:19:10.086Z,98091.16
2023-02-27T17:21:36.472Z,98091.72
2023-02-27T17:24:04.014Z,98092.28
2023-02-27T17:26:31.101Z,98088.47
2023-02-27T17:28:58.486Z,98096.63
2023-02-27T17:31:25.690Z,98097.38
2023-02-27T17:33:53.531Z,98092.94
2023-02-27T17:36:22.159Z,98093.13
2023-02-27T17:38:49.189Z,98108.97
2023-02-27T17:41:16.263Z,98109.75
2023-02-27T17:43:42.681Z,98102.81
2023-02-27T17:46:10.738Z,98097.69
2023-02-27T17:48:38.369Z,98109.03
2023-02-27T17:51:11.438Z,98109.13
2023-02-27T17:53:38.886Z,98120.50
2023-02-27T17:56:06.571Z,98123.28
2023-02-27T17:58:33.914Z,98112.91
2023-02-27T18:01:08.888Z,98120.59
2023-02-27T18:03:35.496Z,98122.69
2023-02-27T18:06:02.126Z,98116.53
2023-02-27T18:08:28.823Z,98116.75
2023-02-27T18:10:56.286Z,98129.94
2023-02-27T18:13:23.606Z,98124.69
2023-02-27T18:15:50.340Z,98127.78
2023-02-27T18:18:16.771Z,98120.66
2023-02-27T18:20:43.276Z,98124.31
2023-02-27T18:23:10.200Z,98125.50
2023-02-27T18:25:37.275Z,98110.47
2023-02-27T18:28:05.174Z,98122.47
2023-02-27T18:30:33.504Z,98110.19
2023-02-27T18:33:00.158Z,98122.63
2023-02-27T18:35:27.174Z,98119.13
2023-02-27T18:37:53.904Z,98116.00
2023-02-27T18:40:24.425Z,98119.13
2023-02-27T18:42:52.443Z,98103.72
2023-02-27T18:45:19.810Z,98113.75
2023-02-27T18:47:47.108Z,98116.44
2023-02-27T18:50:13.644Z,98127.50
2023-02-27T18:52:40.037Z,98117.78
2023-02-27T18:55:06.881Z,98130.00
2023-02-27T18:57:33.290Z,98118.47
2023-02-27T18:59:59.705Z,98124.56
2023-02-27T19:02:26.136Z,98121.94
2023-02-27T19:04:52.525Z,98128.00
2023-02-27T19:07:20.520Z,98127.47
2023-02-27T19:09:47.007Z,98134.34
2023-02-27T19:12:13.557Z,98112.00
2023-02-27T19:14:40.666Z,98138.84
2023-02-27T19:17:07.292Z,98127.09
2023-02-27T19:19:33.659Z,98131.38
2023-02-27T19:22:00.224Z,98135.66
2023-02-27T19:24:26.705Z,98133.16
2023-02-27T19:26:53.572Z,98131.25
2023-02-27T19:29:20.446Z,98141.25
2023-02-27T19:31:47.021Z,98136.50
2023-02-27T19:34:14.808Z,98139.47
2023-02-27T19:36:41.469Z,98131.09
2023-02-27T19:39:07.873Z,98139.06
2023-02-27T19:41:34.240Z,98131.44
2023-02-27T19:44:00.916Z,98135.72
2023-02-27T19:46:30.824Z,98139.88
2023-02-27T19:49:00.771Z,98134.59
2023-02-27T19:51:27.478Z,98134.13
2023-02-27T19:53:54.754Z,98140.25
2023-02-27T19:56:24.033Z,98146.56
2023-02-27T19:58:51.102Z,98151.25
2023-02-27T20:01:28.458Z,98141.50
2023-02-27T20:03:55.990Z,98134.44
2023-02-27T20:06:24.753Z,98141.88
2023-02-27T20:08:53.052Z,98148.44
2023-02-27T20:11:20.781Z,98148.06
2023-02-27T20:13:48.660Z,98142.88
2023-02-27T20:16:18.762Z,98146.63
2023-02-27T20:18:45.575Z,98141.97
2023-02-27T20:21:15.154Z,98161.97
2023-02-27T20:23:44.292Z,98153.69
2023-02-27T20:26:19.094Z,98157.81
2023-02-27T20:28:46.446Z,98151.63
2023-02-27T20:31:14.898Z,98164.16
2023-02-27T20:33:42.397Z,98147.53
2023-02-27T20:36:10.488Z,98162.63
2023-02-27T20:38:39.037Z,98149.00
2023-02-27T20:41:10.907Z,98156.06
2023-02-27T20:43:38.480Z,98143.91
2023-02-27T20:46:06.650Z,98148.81
2023-02-27T20:48:33.313Z,98143.28
2023-02-27T20:51:22.259Z,98139.88
2023-02-27T20:53:51.767Z,98143.34
2023-02-27T20:56:25.227Z,98132.75
2023-02-27T20:58:51.774Z,98131.06
2023-02-27T21:01:19.005Z,98129.22
2023-02-27T21:03:46.836Z,98118.84
2023-02-27T21:06:15.510Z,98120.75
2023-02-27T21:08:46.295Z,98120.28
2023-02-27T21:11:24.362Z,98125.59
2023-02-27T21:13:50.787Z,98130.22
2023-02-27T21:16:18.550Z,98120.34
2023-02-27T21:18:45.404Z,98121.66
2023-02-27T21:21:22.856Z,98120.66
2023-02-27T21:23:49.532Z,98121.28
2023-02-27T21:26:15.809Z,98129.47
2023-02-27T21:28:47.555Z,98125.81
2023-02-27T21:31:15.786Z,98126.78
2023-02-27T21:33:42.514Z,98113.25
2023-02-27T21:36:09.937Z,98124.00
2023-02-27T21:38:37.219Z,98119.28
2023-02-27T21:41:11.445Z,98127.53
2023-02-27T21:43:40.230Z,98119.25
2023-02-27T21:46:08.389Z,98111.25
2023-02-27T21:48:34.846Z,98127.91
2023-02-27T21:51:01.947Z,98119.28
2023-02-27T21:53:28.947Z,98110.69
2023-02-27T21:55:56.155Z,98109.91
2023-02-27T21:58:23.449Z,98120.78
2023-02-27T22:00:50.489Z,98105.53
2023-02-27T22:03:17.449Z,98119.66
2023-02-27T22:05:44.340Z,98110.91
2023-02-27T22:08:10.727Z,98107.34
2023-02-27T22:10:45.658Z,98115.38
2023-02-27T22:13:15.499Z,98101.56
2023-02-27T22:15:42.412Z,98112.38
2023-02-27T22:18:09.298Z,98114.72
2023-02-27T22:20:39.125Z,98118.31
2023-02-27T22:23:06.429Z,98108.47
2023-02-27T22:25:32.847Z,98109.59
2023-02-27T22:27:59.778Z,98115.50
2023-02-27T22:30:27.255Z,98131.63
2023-02-27T22:32:54.799Z,98126.91
2023-02-27T22:35:22.619Z,98114.78
2023-02-27T22:37:49.037Z,98122.44
2023-02-27T22:40:17.628Z,98128.69
2023-02-27T22:42:48.017Z,98123.84
2023-02-27T22:45:15.112Z,98122.06
2023-02-27T22:47:41.568Z,98117.00
2023-02-27T22:50:08.664Z,98131.34
2023-02-27T22:52:36.209Z,98128.00
2023-02-27T22:55:03.420Z,98128.41
2023-02-27T22:57:29.924Z,98111.84
2023-02-27T22:59:56.276Z,98134.94
2023-02-27T23:02:23.012Z,98115.44
2023-02-27T23:04:49.363Z,98130.13
2023-02-27T23:07:15.702Z,98109.59
2023-02-27T23:09:42.269Z,98117.28
2023-02-27T23:12:08.670Z,98116.94
2023-02-27T23:14:35.127Z,98112.56
2023-02-27T23:17:01.474Z,98133.13
2023-02-27T23:19:27.821Z,98130.81
2023-02-27T23:21:54.166Z,98122.03
2023-02-27T23:24:20.629Z,98121.84
2023-02-27T23:26:49.318Z,98128.72
2023-02-27T23:29:15.746Z,98116.38
2023-02-27T23:31:42.559Z,98136.56
2023-02-27T23:34:09.424Z,98132.31
2023-02-27T23:36:37.123Z,98125.06
2023-02-27T23:39:04.549Z,98123.47
2023-02-27T23:41:31.463Z,98124.13
2023-02-27T23:43:57.982Z,98117.03
2023-02-27T23:46:24.353Z,98135.69
2023-02-27T23:48:50.725Z,98145.09
2023-02-27T23:51:17.102Z,98129.84
2023-02-27T23:53:43.586Z,98137.09
2023-02-27T23:56:14.106Z,98130.22
2023-02-27T23:58:40.575Z,98120.88
